This is the latest recevied weather packets stored in our database for station/object K9TLD. If no packets are shown the sender has not sent any weather packets the latest 10 day(s).
| Time | Temp. | Humidity | Pressure | Rain* | Wind** | Luminosity | Snow |
|---|---|---|---|---|---|---|---|
| 1778089715 | 7.22° C | 77% | 1015 hPa | 0 mm | - | 408 W/m² | - |
| 1778089413 | 7.78° C | 75% | 1015 hPa | 0 mm | - | 145 W/m² | - |
| 1778089105 | 7.78° C | 76% | 1015 hPa | 0 mm | - | 840 W/m² | - |
| 1778088802 | 7.22° C | 75% | 1015 hPa | 0 mm | - | 224 W/m² | - |
| 1778088499 | 7.22° C | 76% | 1015.2 hPa | 0 mm | - | 230 W/m² | - |
| 1778088195 | 7.22° C | 75% | 1015 hPa | 0 mm | - | 256 W/m² | - |
| 1778087893 | 7.78° C | 74% | 1015.1 hPa | 0 mm | - | 176 W/m² | - |
| 1778087590 | 7.78° C | 74% | 1015.3 hPa | 0 mm | - | 290 W/m² | - |
| 1778087288 | 7.78° C | 76% | 1015.3 hPa | 0 mm | - | 859 W/m² | - |
| 1778086983 | 7.22° C | 77% | 1015.4 hPa | 0 mm | - | 215 W/m² | - |
| 1778086683 | 7.22° C | 77% | 1015.3 hPa | 0 mm | - | 222 W/m² | - |
| 1778086379 | 6.67° C | 80% | 1015 hPa | 0 mm | - | 237 W/m² | - |
| 1778086076 | 6.67° C | 77% | 1015.3 hPa | 0 mm | - | 177 W/m² | - |
| 1778085773 | 7.22° C | 77% | 1015.2 hPa | 0 mm | - | 130 W/m² | - |
| 1778085470 | 7.22° C | 77% | 1015.2 hPa | 0 mm | - | 179 W/m² | - |
| 1778085165 | 7.78° C | 76% | 1015.2 hPa | 0 mm | - | 92 W/m² | - |
| 1778084861 | 7.78° C | 72% | 1015 hPa | 0 mm | - | 152 W/m² | - |
| 1778084559 | 7.78° C | 75% | 1015.1 hPa | 0 mm | - | 754 W/m² | - |
| 1778084256 | 7.22° C | 74% | 1015.2 hPa | 0 mm | - | 111 W/m² | - |
| 1778083953 | 7.22° C | 75% | 1015 hPa | 0 mm | - | 162 W/m² | - |
| 1778083650 | 8.33° C | 70% | 1015.1 hPa | 0 mm | - | 251 W/m² | - |
| 1778083347 | 7.78° C | 72% | 1015.1 hPa | 0 mm | - | 310 W/m² | - |
| 1778083046 | 8.33° C | 70% | 1015.2 hPa | 0 mm | - | 223 W/m² | - |
| 1778082742 | 8.89° C | 70% | 1015.2 hPa | 0 mm | - | 820 W/m² | - |
| 1778081610 | 8.89° C | 71% | 1015.2 hPa | 0 mm | - | 285 W/m² | - |
* Rain latest hour (hover to see other rain measurements)
** Current wind speed in m/s (hover to see current wind gust speed)